Flight Track Log - Related Links

Times and Time Zones

All times are in EDT time to prevent confusion due to time zone crossing. See the FDX1254 flight status page for this flight to view local times or setup timezone preferences in your user account.

Time Position Orientation Groundspeed Altitude Reporting Facility
EDT Latitude Longitude Course Direction KTS MPH feet Rate Location/Type
Tue 08:53:09 PM 41.7360 -71.6000 300° West 265 305 7,000  Level FlightAware ADS-B
Tue 08:53:39 PM 41.7540 -71.6400 301° West 267 307 8,800 3,343 Climbing FlightAware ADS-B
Tue 08:54:19 PM 41.7790 -71.7030 298° West 292 336 10,900 2,329 Climbing FlightAware ADS-B
Tue 08:55:04 PM 41.8120 -71.7800 300° West 343 395 12,100 2,067 Climbing FlightAware ADS-B
Tue 08:55:49 PM 41.8490 -71.8670 300° West 365 420 14,000 2,727 Climbing FlightAware ADS-B
Tue 08:56:21 PM 41.8750 -71.9310 299° West 368 423 15,600 2,883 Climbing FlightAware ADS-B
Tue 08:57:06 PM 41.9120 -72.0190 299° West 371 427 17,700 2,633 Climbing FlightAware ADS-B
Tue 08:57:59 PM 41.9550 -72.1230 299° West 370 426 19,900 1,294 Climbing FlightAware ADS-B
Tue 08:58:48 PM 41.9890 -72.2070 299° West 370 426 19,900  Level FlightAware ADS-B
Tue 08:59:24 PM 42.0150 -72.2680 300° West 370 426 19,900 3,125 Level FlightAware ADS-B
Tue 09:00:24 PM 42.0820 -72.4330 299° West 398 458 24,900 2,852 Climbing FlightAware ADS-B
Tue 09:02:06 PM 42.1190 -72.6690 282° West 413 475 27,600 2,255 Climbing FlightAware ADS-B
Tue 09:02:45 PM 42.1190 -72.7890 270° West 417 480 30,200 3,325 Climbing FlightAware ADS-B
Tue 09:03:29 PM 42.1170 -72.8980 269° West 407 468 32,200 2,442 Climbing FlightAware ADS-B
Tue 09:04:11 PM 42.1160 -73.0100 269° West 409 471 33,700 2,071 Climbing FlightAware ADS-B
Tue 09:04:53 PM 42.1150 -73.1110 269° West 406 467 35,100 2,026 Climbing FlightAware ADS-B
Tue 09:05:28 PM 42.1130 -73.2020 268° West 407 468 36,300 1,735 Climbing FlightAware ADS-B
Tue 09:06:16 PM 42.1110 -73.3240 269° West 409 471 37,500 1,794 Climbing FlightAware ADS-B
Tue 09:07:05 PM 42.1094 -73.4473 269° West 399 459 39,200 1,875 Climbing FlightAware ADS-B
Tue 09:07:36 PM 42.1081 -73.5246 269° West 381 438 40,000 774 Climbing FlightAware ADS-B
Tue 09:08:07 PM 42.1068 -73.5961 269° West 370 426 40,000  Level FlightAware ADS-B
Tue 09:08:37 PM 42.1055 -73.6658 269° West 377 434 40,000  Level FlightAware ADS-B
Tue 09:09:09 PM 42.1041 -73.7410 269° West 381 438 40,000  Level FlightAware ADS-B
Tue 09:09:40 PM 42.1027 -73.8127 269° West 385 443 40,000  Level FlightAware ADS-B
Tue 09:10:10 PM 42.1013 -73.8848 269° West 389 448 40,000  Level FlightAware ADS-B
Tue 09:10:40 PM 42.0997 -73.9602 268° West 392 451 40,000  Level FlightAware ADS-B
Tue 09:11:13 PM 42.0980 -74.0409 268° West 395 455 40,000  Level FlightAware ADS-B
Tue 09:11:44 PM 42.0964 -74.1151 268° West 400 460 40,000  Level FlightAware ADS-B
Tue 09:12:16 PM 42.0944 -74.1972 268° West 401 461 40,000  Level FlightAware ADS-B
Tue 09:12:47 PM 42.0927 -74.2719 268° West 401 461 40,000  Level FlightAware ADS-B
Tue 09:13:20 PM 42.0907 -74.3543 268° West 401 461 40,000  Level FlightAware ADS-B
Tue 09:13:52 PM 42.0886 -74.4337 268° West 401 461 40,000  Level FlightAware ADS-B
Tue 09:14:05 PM 42.0858 -74.4685 264° West 402 463 40,000  Level FlightAware ADS-B
Tue 09:14:28 PM 42.0764 -74.5247 257° West 403 464 40,000  Level FlightAware ADS-B
Tue 09:15:00 PM 42.0554 -74.5971 249° West 404 465 40,000  Level FlightAware ADS-B
Tue 09:15:30 PM 42.0336 -74.6690 248° West 404 465 40,000  Level FlightAware ADS-B
Tue 09:16:00 PM 42.0116 -74.7382 247° West 404 465 40,000  Level FlightAware ADS-B
Tue 09:16:32 PM 41.9886 -74.8097 247° West 402 463 40,000  Level FlightAware ADS-B
Tue 09:16:56 PM 41.9747 -74.8663 252° West 400 460 40,000  Level FlightAware ADS-B
Tue 09:17:14 PM 41.9707 -74.8878 256° West 399 459 40,000  Level FlightAware ADS-B
Tue 09:17:29 PM 41.9648 -74.9315 260° West 398 458 40,000  Level FlightAware ADS-B
Tue 09:17:59 PM 41.9556 -75.0221 262° West 398 458 40,000  Level FlightAware ADS-B
Tue 09:18:34 PM 41.9469 -75.1050 262° West 398 458 40,000  Level FlightAware ADS-B
Tue 09:19:06 PM 41.9390 -75.1853 262° West 395 455 40,000  Level FlightAware ADS-B
Tue 09:19:38 PM 41.9314 -75.2605 262° West 394 453 40,000  Level FlightAware ADS-B
Tue 09:20:08 PM 41.9241 -75.3356 263° West 393 452 40,000  Level FlightAware ADS-B
Tue 09:20:39 PM 41.9167 -75.4107 262° West 394 453 40,000  Level FlightAware ADS-B
Tue 09:21:14 PM 41.9081 -75.4952 262° West 394 453 40,000  Level FlightAware ADS-B
Tue 09:21:47 PM 41.9000 -75.5726 262° West 394 453 40,000  Level FlightAware ADS-B
Tue 09:22:21 PM 41.8913 -75.6570 262° West 393 452 40,000  Level FlightAware ADS-B
Tue 09:23:01 PM 41.8814 -75.7532 262° West 392 451 40,000  Level FlightAware ADS-B
Tue 09:23:32 PM 41.8737 -75.8279 262° West 393 452 40,000  Level FlightAware ADS-B
Tue 09:24:06 PM 41.8650 -75.9098 262° West 393 452 40,000  Level FlightAware ADS-B
Tue 09:24:36 PM 41.8573 -75.9821 262° West 394 453 40,000  Level FlightAware ADS-B
Tue 09:25:08 PM 41.8491 -76.0596 262° West 395 455 40,000  Level FlightAware ADS-B
Tue 09:25:39 PM 41.8410 -76.1347 262° West 396 456 40,000  Level FlightAware ADS-B
Tue 09:26:11 PM 41.8328 -76.2098 262° West 397 457 40,000  Level FlightAware ADS-B
Tue 09:26:42 PM 41.8245 -76.2852 262° West 397 457 40,000  Level FlightAware ADS-B
Tue 09:27:12 PM 41.8166 -76.3604 262° West 397 457 40,000  Level FlightAware ADS-B
Tue 09:27:58 PM 41.8042 -76.4724 262° West 398 458 40,000  Level FlightAware ADS-B
Tue 09:28:28 PM 41.7961 -76.5455 262° West 398 458 40,000  Level FlightAware ADS-B
Tue 09:28:58 PM 41.7879 -76.6185 261° West 398 458 40,000  Level FlightAware ADS-B
Tue 09:29:32 PM 41.7786 -76.7014 261° West 398 458 40,000  Level FlightAware ADS-B
Tue 09:30:03 PM 41.7700 -76.7769 261° West 399 459 40,000  Level FlightAware ADS-B
Tue 09:30:42 PM 41.7593 -76.8697 261° West 400 460 40,000  Level FlightAware ADS-B
Tue 09:31:17 PM 41.7495 -76.9551 261° West 400 460 40,000  Level FlightAware ADS-B
Tue 09:32:02 PM 41.7366 -77.0675 261° West 401 461 40,000  Level FlightAware ADS-B
Tue 09:32:43 PM 41.7249 -77.1678 261° West 401 461 40,000  Level FlightAware ADS-B
Tue 09:33:49 PM 41.7070 -77.3200 261° West 400 460 40,000  Level FlightAware ADS-B
Tue 09:34:30 PM 41.6960 -77.4200 262° West 400 460 40,000  Level FlightAware ADS-B
Tue 09:35:09 PM 41.6900 -77.5160 265° West 401 461 40,000  Level FlightAware ADS-B
Tue 09:35:49 PM 41.6840 -77.6170 265° West 401 461 40,000  Level FlightAware ADS-B
Tue 09:36:34 PM 41.6780 -77.7290 266° West 402 463 40,000  Level FlightAware ADS-B
Tue 09:37:14 PM 41.6720 -77.8200 265° West 402 463 40,000  Level FlightAware ADS-B
Tue 09:38:01 PM 41.6650 -77.9390 266° West 403 464 40,000  Level FlightAware ADS-B
Tue 09:38:39 PM 41.6590 -78.0360 265° West 405 466 40,000  Level FlightAware ADS-B
Tue 09:39:24 PM 41.6530 -78.1510 266° West 406 467 40,000  Level FlightAware ADS-B
Tue 09:40:04 PM 41.6470 -78.2410 265° West 407 468 40,000  Level FlightAware ADS-B
Tue 09:40:49 PM 41.6400 -78.3520 265° West 409 471 40,000  Level FlightAware ADS-B
Tue 09:41:29 PM 41.6330 -78.4630 265° West 410 472 40,000  Level FlightAware ADS-B
Tue 09:42:10 PM 41.6260 -78.5640 265° West 410 472 40,000  Level FlightAware ADS-B
Tue 09:42:49 PM 41.6200 -78.6640 265° West 410 472 40,000  Level FlightAware ADS-B
Tue 09:43:39 PM 41.6110 -78.7910 265° West 410 472 40,000  Level FlightAware ADS-B
Tue 09:44:19 PM 41.6040 -78.8910 265° West 410 472 40,000  Level FlightAware ADS-B
Tue 09:44:54 PM 41.5980 -78.9770 265° West 410 472 40,000  Level FlightAware ADS-B
Tue 09:45:44 PM 41.5900 -79.1030 265° West 410 472 40,000  Level FlightAware ADS-B
Tue 09:46:24 PM 41.5830 -79.2020 265° West 410 472 40,000  Level FlightAware ADS-B
Tue 09:47:04 PM 41.5760 -79.3050 265° West 410 472 40,000  Level FlightAware ADS-B
Tue 09:47:44 PM 41.5680 -79.4060 264° West 411 473 40,000  Level FlightAware ADS-B
Tue 09:48:24 PM 41.5610 -79.5040 265° West 411 473 40,000  Level FlightAware ADS-B
Tue 09:49:14 PM 41.5510 -79.6380 264° West 411 473 40,000  Level FlightAware ADS-B
Tue 09:49:54 PM 41.5440 -79.7340 264° West 412 474 40,000  Level FlightAware ADS-B
Tue 09:50:31 PM 41.5380 -79.8140 264° West 412 474 40,000  Level FlightAware ADS-B
Tue 09:51:14 PM 41.5290 -79.9280 264° West 412 474 40,000  Level FlightAware ADS-B
Tue 09:51:59 PM 41.5200 -80.0440 264° West 412 474 40,000  Level FlightAware ADS-B
Tue 09:52:39 PM 41.5120 -80.1450 264° West 411 473 40,000  Level FlightAware ADS-B
Tue 09:53:24 PM 41.5030 -80.2550 264° West 409 471 40,000  Level FlightAware ADS-B
Tue 09:54:05 PM 41.4940 -80.3680 264° West 407 468 40,000  Level FlightAware ADS-B
Tue 09:54:49 PM 41.4850 -80.4770 264° West 404 465 40,000  Level FlightAware ADS-B
Tue 09:55:29 PM 41.4770 -80.5760 264° West 402 463 40,000  Level FlightAware ADS-B
Tue 09:56:10 PM 41.4690 -80.6740 264° West 401 461 40,000  Level FlightAware ADS-B
Tue 09:56:54 PM 41.4590 -80.7840 263° West 400 460 40,000  Level FlightAware ADS-B
Tue 09:57:34 PM 41.4510 -80.8820 264° West 399 459 40,000  Level FlightAware ADS-B
Tue 09:58:21 PM 41.4400 -81.0040 263° West 400 460 40,000  Level FlightAware ADS-B
Tue 09:59:01 PM 41.4320 -81.1040 264° West 400 460 40,000  Level FlightAware ADS-B
Tue 09:59:45 PM 41.4220 -81.2120 263° West 401 461 40,000  Level FlightAware ADS-B
Tue 10:00:23 PM 41.4140 -81.3000 263° West 401 461 40,000  Level FlightAware ADS-B
Tue 10:01:05 PM 41.4050 -81.4060 264° West 401 461 40,000  Level FlightAware ADS-B
Tue 10:01:49 PM 41.3950 -81.5140 263° West 401 461 40,000  Level FlightAware ADS-B
Tue 10:02:29 PM 41.3860 -81.6100 263° West 401 461 40,000  Level FlightAware ADS-B
Tue 10:03:15 PM 41.3750 -81.7250 263° West 401 461 40,000  Level FlightAware ADS-B
Tue 10:03:55 PM 41.3660 -81.8230 263° West 401 461 40,000  Level FlightAware ADS-B
Tue 10:04:37 PM 41.3560 -81.9250 263° West 401 461 40,000  Level FlightAware ADS-B
Tue 10:05:31 PM 41.3440 -82.0460 263° West 401 461 40,000  Level FlightAware ADS-B
Tue 10:06:14 PM 41.3340 -82.1600 263° West 400 460 40,000 -143 Level FlightAware ADS-B
Tue 10:06:55 PM 41.3240 -82.2620 263° West 399 459 39,800 -706 Descending FlightAware ADS-B
Tue 10:07:39 PM 41.3130 -82.3700 262° West 403 464 39,000 -878 Descending FlightAware ADS-B
Tue 10:08:17 PM 41.3040 -82.4650 263° West 399 459 38,600 -825 Descending FlightAware ADS-B
Tue 10:08:59 PM 41.2940 -82.5640 262° West 395 455 37,900 -1,091 Descending FlightAware ADS-B
Tue 10:09:45 PM 41.2820 -82.6750 262° West 397 457 37,000 -1,235 Descending FlightAware ADS-B
Tue 10:10:41 PM 41.2680 -82.8150 262° West 408 470 35,800 -1,263 Descending FlightAware ADS-B
Tue 10:11:01 PM 41.2630 -82.8620 262° West 411 473 35,400 -720 Descending FlightAware ADS-B
Tue 10:11:56 PM 41.2500 -82.9910 262° West 418 481 34,900 -980 Descending FlightAware ADS-B
Tue 10:12:39 PM 41.2360 -83.1170 262° West 431 496 33,800 -1,241 Descending FlightAware ADS-B
Tue 10:13:23 PM 41.2240 -83.2330 262° West 434 499 33,100 -918 Descending FlightAware ADS-B
Tue 10:14:04 PM 41.2130 -83.3380 262° West 435 501 32,500 -1,200 Descending FlightAware ADS-B
Tue 10:14:43 PM 41.2020 -83.4410 262° West 431 496 31,500 -2,805 Descending FlightAware ADS-B
Tue 10:15:21 PM 41.1900 -83.5440 261° West 438 504 28,900 -4,159 Descending FlightAware ADS-B
Tue 10:16:11 PM 41.1760 -83.6780 262° West 441 507 25,400 -3,843 Descending FlightAware ADS-B
Tue 10:16:50 PM 41.1640 -83.7790 261° West 430 495 23,200 -3,388 Descending FlightAware ADS-B
Tue 10:17:36 PM 41.1510 -83.8970 262° West 417 480 20,600 -3,349 Descending FlightAware ADS-B
Tue 10:18:16 PM 41.1400 -83.9940 261° West 405 466 18,400 -3,418 Descending FlightAware ADS-B
Tue 10:18:55 PM 41.1290 -84.0940 262° West 397 457 16,100 -3,253 Descending FlightAware ADS-B
Tue 10:19:39 PM 41.1170 -84.1980 261° West 383 441 13,900 -2,897 Descending FlightAware ADS-B
Tue 10:20:22 PM 41.1060 -84.2940 261° West 372 428 11,900 -2,214 Descending FlightAware ADS-B
Tue 10:21:03 PM 41.0950 -84.3860 261° West 359 413 10,800 -767 Descending FlightAware ADS-B
Tue 10:21:48 PM 41.0830 -84.4810 261° West 352 405 10,800  Level FlightAware ADS-B
Tue 10:22:27 PM 41.0740 -84.5590 261° West 299 344 10,800 -65 Level FlightAware ADS-B
Tue 10:23:21 PM 41.0660 -84.6440 263° West 272 313 10,700 -1,200 Descending FlightAware ADS-B
Tue 10:23:52 PM 41.0650 -84.6980 269° West 272 313 9,100 -1,700 Descending FlightAware ADS-B
Tue 10:24:21 PM 41.0630 -84.7400 266° West 272 313 9,000 -113 Descending FlightAware ADS-B
Tue 10:24:45 PM 41.0610 -84.7730 265° West 272 313 9,000  Level FlightAware ADS-B
Tue 10:25:09 PM 41.0600 -84.8070 268° West 272 313 9,000  Level FlightAware ADS-B
Tue 10:25:27 PM 41.0580 -84.8330 264° West 272 313 9,000  Level FlightAware ADS-B
Tue 10:25:52 PM 41.0560 -84.8680 266° West 272 313 9,000 -4,138 Level FlightAware ADS-B
Tue 10:26:25 PM 41.0503 -84.9214 266° West 253 291 5,000 -3,284 Descending Chicago Center
Tue 10:27:27 PM 41.0456 -84.9989 265° West 235 270 3,800 -927 Descending Chicago Center
Tue 10:28:28 PM 41.0417 -85.0664 266° West 211 243 3,100 -934 Descending Chicago Center
Tue 10:29:29 PM 41.0269 -85.1289 253° West 171 197 1,900 -836 Descending Chicago Center
Tue 10:30:30 PM 41.0042 -85.1594 225° Southwest 157 181 1,400 -492 Descending Chicago Center

Login

Don't have an account? Register now (free) for customized features, flight alerts, and more!